sensor_id;sensor_type;location;lat;lon;timestamp;pressure;altitude;pressure_sealevel;temperature;humidity
27729;BME280;15126;42.186;24.340;2022-08-20T00:01:41;98816.97;;;26.80;57.73
27729;BME280;15126;42.186;24.340;2022-08-20T00:04:08;98807.75;;;26.61;58.49
27729;BME280;15126;42.186;24.340;2022-08-20T00:06:35;98802.75;;;26.15;59.92
27729;BME280;15126;42.186;24.340;2022-08-20T00:09:02;98804.75;;;26.33;59.51
27729;BME280;15126;42.186;24.340;2022-08-20T00:11:29;98807.56;;;26.07;60.05
27729;BME280;15126;42.186;24.340;2022-08-20T00:14:00;98813.53;;;26.22;59.49
27729;BME280;15126;42.186;24.340;2022-08-20T00:16:31;98807.50;;;26.25;57.64
27729;BME280;15126;42.186;24.340;2022-08-20T00:18:59;98805.19;;;26.24;58.39
27729;BME280;15126;42.186;24.340;2022-08-20T00:21:27;98806.47;;;26.23;57.50
27729;BME280;15126;42.186;24.340;2022-08-20T00:23:55;98804.41;;;26.23;57.23
27729;BME280;15126;42.186;24.340;2022-08-20T00:26:23;98796.59;;;26.24;57.84
27729;BME280;15126;42.186;24.340;2022-08-20T00:28:50;98801.00;;;26.25;58.55
27729;BME280;15126;42.186;24.340;2022-08-20T00:31:20;98801.78;;;26.25;58.34
27729;BME280;15126;42.186;24.340;2022-08-20T00:33:49;98798.16;;;26.25;58.49
27729;BME280;15126;42.186;24.340;2022-08-20T00:36:18;98802.53;;;26.26;58.20
27729;BME280;15126;42.186;24.340;2022-08-20T00:38:45;98804.06;;;26.27;58.59
27729;BME280;15126;42.186;24.340;2022-08-20T00:41:16;98802.75;;;26.28;58.83
27729;BME280;15126;42.186;24.340;2022-08-20T00:43:46;98800.66;;;26.28;58.34
27729;BME280;15126;42.186;24.340;2022-08-20T00:46:17;98797.59;;;26.26;57.61
27729;BME280;15126;42.186;24.340;2022-08-20T00:48:46;98791.97;;;26.21;58.10
27729;BME280;15126;42.186;24.340;2022-08-20T00:51:20;98790.88;;;26.24;58.56
27729;BME280;15126;42.186;24.340;2022-08-20T00:53:53;98770.28;;;26.12;58.81
27729;BME280;15126;42.186;24.340;2022-08-20T00:56:20;98774.94;;;26.15;57.81
27729;BME280;15126;42.186;24.340;2022-08-20T00:58:49;98771.88;;;26.13;59.02
27729;BME280;15126;42.186;24.340;2022-08-20T01:01:17;98770.06;;;26.10;59.32
27729;BME280;15126;42.186;24.340;2022-08-20T01:03:44;98766.44;;;26.10;59.46
27729;BME280;15126;42.186;24.340;2022-08-20T01:06:11;98775.91;;;26.04;59.76
27729;BME280;15126;42.186;24.340;2022-08-20T01:08:39;98785.16;;;25.84;59.80
27729;BME280;15126;42.186;24.340;2022-08-20T01:11:07;98786.34;;;25.89;59.32
27729;BME280;15126;42.186;24.340;2022-08-20T01:13:37;98788.13;;;25.92;59.21
27729;BME280;15126;42.186;24.340;2022-08-20T01:16:12;98795.25;;;25.85;60.54
27729;BME280;15126;42.186;24.340;2022-08-20T01:18:44;98805.91;;;25.85;60.57
27729;BME280;15126;42.186;24.340;2022-08-20T01:21:13;98803.81;;;25.85;60.34
27729;BME280;15126;42.186;24.340;2022-08-20T01:23:46;98802.31;;;25.84;60.02
27729;BME280;15126;42.186;24.340;2022-08-20T01:26:20;98801.41;;;25.76;60.71
27729;BME280;15126;42.186;24.340;2022-08-20T01:28:51;98804.81;;;25.75;60.88
27729;BME280;15126;42.186;24.340;2022-08-20T01:31:21;98798.31;;;25.74;60.46
27729;BME280;15126;42.186;24.340;2022-08-20T01:33:48;98803.59;;;25.70;60.77
27729;BME280;15126;42.186;24.340;2022-08-20T01:36:18;98799.50;;;25.66;60.46
27729;BME280;15126;42.186;24.340;2022-08-20T01:38:46;98776.81;;;25.41;61.31
27729;BME280;15126;42.186;24.340;2022-08-20T01:41:23;98803.28;;;25.42;60.13
27729;BME280;15126;42.186;24.340;2022-08-20T01:43:56;98799.59;;;25.47;59.98
27729;BME280;15126;42.186;24.340;2022-08-20T01:46:26;98792.63;;;25.42;60.27
27729;BME280;15126;42.186;24.340;2022-08-20T01:48:54;98792.72;;;25.37;60.81
27729;BME280;15126;42.186;24.340;2022-08-20T01:51:24;98783.59;;;25.38;60.28
27729;BME280;15126;42.186;24.340;2022-08-20T01:53:54;98780.53;;;25.36;60.36
27729;BME280;15126;42.186;24.340;2022-08-20T01:56:25;98786.25;;;25.36;60.76
27729;BME280;15126;42.186;24.340;2022-08-20T01:58:55;98762.81;;;25.25;60.55
27729;BME280;15126;42.186;24.340;2022-08-20T02:01:25;98781.97;;;25.30;61.58
27729;BME280;15126;42.186;24.340;2022-08-20T02:03:53;98775.78;;;25.26;61.70
27729;BME280;15126;42.186;24.340;2022-08-20T02:06:21;98775.66;;;25.18;61.36
27729;BME280;15126;42.186;24.340;2022-08-20T02:08:51;98774.88;;;25.18;60.63
27729;BME280;15126;42.186;24.340;2022-08-20T02:11:18;98773.88;;;25.15;61.02
27729;BME280;15126;42.186;24.340;2022-08-20T02:13:46;98773.97;;;25.10;62.37
27729;BME280;15126;42.186;24.340;2022-08-20T02:16:18;98772.00;;;25.05;61.58
27729;BME280;15126;42.186;24.340;2022-08-20T02:18:46;98781.06;;;25.03;61.56
27729;BME280;15126;42.186;24.340;2022-08-20T02:21:14;98774.84;;;25.05;61.33
27729;BME280;15126;42.186;24.340;2022-08-20T02:23:41;98762.59;;;24.91;62.00
27729;BME280;15126;42.186;24.340;2022-08-20T02:26:08;98764.81;;;24.98;61.43
27729;BME280;15126;42.186;24.340;2022-08-20T02:28:34;98763.50;;;24.99;61.80
27729;BME280;15126;42.186;24.340;2022-08-20T02:31:03;98775.22;;;24.96;61.89
27729;BME280;15126;42.186;24.340;2022-08-20T02:33:33;98773.31;;;24.85;62.61
27729;BME280;15126;42.186;24.340;2022-08-20T02:36:00;98775.09;;;24.88;62.50
27729;BME280;15126;42.186;24.340;2022-08-20T02:38:28;98783.28;;;24.78;63.20
27729;BME280;15126;42.186;24.340;2022-08-20T02:40:54;98770.63;;;24.74;63.60
27729;BME280;15126;42.186;24.340;2022-08-20T02:43:21;98769.69;;;24.66;64.09
27729;BME280;15126;42.186;24.340;2022-08-20T02:45:48;98761.56;;;24.57;64.22
27729;BME280;15126;42.186;24.340;2022-08-20T02:48:19;98774.56;;;24.52;64.87
27729;BME280;15126;42.186;24.340;2022-08-20T02:50:52;98776.63;;;24.52;65.42
27729;BME280;15126;42.186;24.340;2022-08-20T02:53:20;98780.03;;;24.50;65.75
27729;BME280;15126;42.186;24.340;2022-08-20T02:55:48;98776.19;;;24.48;66.50
27729;BME280;15126;42.186;24.340;2022-08-20T02:58:15;98775.47;;;24.42;66.54
27729;BME280;15126;42.186;24.340;2022-08-20T03:00:42;98764.78;;;24.29;66.15
27729;BME280;15126;42.186;24.340;2022-08-20T03:03:10;98767.69;;;24.23;66.78
27729;BME280;15126;42.186;24.340;2022-08-20T03:05:40;98776.97;;;24.30;67.22
27729;BME280;15126;42.186;24.340;2022-08-20T03:08:11;98778.47;;;24.31;65.55
27729;BME280;15126;42.186;24.340;2022-08-20T03:10:39;98781.09;;;24.28;66.66
27729;BME280;15126;42.186;24.340;2022-08-20T03:13:10;98775.25;;;24.21;67.03
27729;BME280;15126;42.186;24.340;2022-08-20T03:15:45;98781.31;;;24.12;66.70
27729;BME280;15126;42.186;24.340;2022-08-20T03:18:13;98778.69;;;24.14;66.73
27729;BME280;15126;42.186;24.340;2022-08-20T03:20:42;98778.72;;;24.08;66.88
27729;BME280;15126;42.186;24.340;2022-08-20T03:23:12;98772.28;;;24.08;65.64
27729;BME280;15126;42.186;24.340;2022-08-20T03:25:39;98776.91;;;24.11;66.28
27729;BME280;15126;42.186;24.340;2022-08-20T03:28:07;98774.06;;;24.11;66.73
27729;BME280;15126;42.186;24.340;2022-08-20T03:30:35;98774.59;;;24.09;66.72
27729;BME280;15126;42.186;24.340;2022-08-20T03:33:02;98774.59;;;24.09;67.55
27729;BME280;15126;42.186;24.340;2022-08-20T03:35:30;98768.72;;;24.02;66.87
27729;BME280;15126;42.186;24.340;2022-08-20T03:37:59;98780.56;;;24.06;66.93
27729;BME280;15126;42.186;24.340;2022-08-20T03:40:28;98777.50;;;24.04;67.49
27729;BME280;15126;42.186;24.340;2022-08-20T03:42:56;98779.03;;;24.05;67.23
27729;BME280;15126;42.186;24.340;2022-08-20T03:45:24;98764.22;;;23.88;66.19
27729;BME280;15126;42.186;24.340;2022-08-20T03:47:58;98783.53;;;23.95;65.93
27729;BME280;15126;42.186;24.340;2022-08-20T03:50:28;98785.09;;;23.96;66.42
27729;BME280;15126;42.186;24.340;2022-08-20T03:52:56;98786.88;;;23.99;65.95
27729;BME280;15126;42.186;24.340;2022-08-20T03:55:26;98794.09;;;24.00;66.20
27729;BME280;15126;42.186;24.340;2022-08-20T03:57:56;98789.13;;;24.06;65.91
27729;BME280;15126;42.186;24.340;2022-08-20T04:00:26;98790.44;;;24.05;65.20
27729;BME280;15126;42.186;24.340;2022-08-20T04:02:53;98791.97;;;24.06;65.44
27729;BME280;15126;42.186;24.340;2022-08-20T04:05:22;98798.66;;;24.08;64.60
27729;BME280;15126;42.186;24.340;2022-08-20T04:07:48;98790.75;;;24.01;65.82
27729;BME280;15126;42.186;24.340;2022-08-20T04:10:16;98799.41;;;24.14;65.70
27729;BME280;15126;42.186;24.340;2022-08-20T04:12:44;98799.41;;;24.14;65.88
27729;BME280;15126;42.186;24.340;2022-08-20T04:15:14;98802.19;;;24.20;65.55
27729;BME280;15126;42.186;24.340;2022-08-20T04:17:44;98809.38;;;24.26;64.58
27729;BME280;15126;42.186;24.340;2022-08-20T04:20:13;98800.50;;;24.30;65.14
27729;BME280;15126;42.186;24.340;2022-08-20T04:22:40;98803.63;;;24.32;65.63
27729;BME280;15126;42.186;24.340;2022-08-20T04:25:07;98803.34;;;24.30;65.18
27729;BME280;15126;42.186;24.340;2022-08-20T04:27:35;98800.69;;;24.38;65.73
27729;BME280;15126;42.186;24.340;2022-08-20T04:30:05;98804.78;;;24.42;65.91
27729;BME280;15126;42.186;24.340;2022-08-20T04:32:32;98800.44;;;24.54;65.71
27729;BME280;15126;42.186;24.340;2022-08-20T04:35:00;98816.31;;;24.68;66.28
27729;BME280;15126;42.186;24.340;2022-08-20T04:37:27;98805.50;;;24.85;66.51
27729;BME280;15126;42.186;24.340;2022-08-20T04:39:55;98810.94;;;25.02;64.99
27729;BME280;15126;42.186;24.340;2022-08-20T04:42:39;98809.25;;;25.25;65.04
27729;BME280;15126;42.186;24.340;2022-08-20T04:45:08;98798.91;;;25.41;64.00
27729;BME280;15126;42.186;24.340;2022-08-20T04:47:35;98811.59;;;25.59;62.58
27729;BME280;15126;42.186;24.340;2022-08-20T04:50:07;98813.06;;;25.78;64.38
27729;BME280;15126;42.186;24.340;2022-08-20T04:52:35;98810.63;;;25.95;61.22
27729;BME280;15126;42.186;24.340;2022-08-20T04:55:02;98810.97;;;26.05;59.88
27729;BME280;15126;42.186;24.340;2022-08-20T04:57:29;98812.19;;;26.10;61.53
27729;BME280;15126;42.186;24.340;2022-08-20T04:59:56;98822.44;;;26.18;60.69
27729;BME280;15126;42.186;24.340;2022-08-20T05:02:25;98822.13;;;26.22;60.89
27729;BME280;15126;42.186;24.340;2022-08-20T05:04:52;98819.03;;;26.33;60.34
27729;BME280;15126;42.186;24.340;2022-08-20T05:07:18;98811.53;;;26.43;59.85
27729;BME280;15126;42.186;24.340;2022-08-20T05:09:45;98815.25;;;26.51;59.83
27729;BME280;15126;42.186;24.340;2022-08-20T05:12:12;98824.19;;;26.60;59.98
27729;BME280;15126;42.186;24.340;2022-08-20T05:14:39;98806.88;;;26.66;58.76
27729;BME280;15126;42.186;24.340;2022-08-20T05:17:07;98803.75;;;26.77;59.96
27729;BME280;15126;42.186;24.340;2022-08-20T05:19:35;98798.56;;;26.89;58.62
27729;BME280;15126;42.186;24.340;2022-08-20T05:22:02;98807.28;;;26.83;58.37
27729;BME280;15126;42.186;24.340;2022-08-20T05:24:29;98794.69;;;26.99;57.85
27729;BME280;15126;42.186;24.340;2022-08-20T05:26:58;98796.31;;;27.08;56.69
27729;BME280;15126;42.186;24.340;2022-08-20T05:29:25;98802.09;;;27.15;59.08
27729;BME280;15126;42.186;24.340;2022-08-20T05:31:52;98807.22;;;27.30;58.04
27729;BME280;15126;42.186;24.340;2022-08-20T05:34:21;98807.16;;;27.43;57.14
27729;BME280;15126;42.186;24.340;2022-08-20T05:36:50;98810.88;;;27.51;57.16
27729;BME280;15126;42.186;24.340;2022-08-20T05:39:20;98800.88;;;27.65;57.42
27729;BME280;15126;42.186;24.340;2022-08-20T05:41:55;98802.66;;;27.76;57.71
27729;BME280;15126;42.186;24.340;2022-08-20T05:44:22;98805.97;;;27.80;56.61
27729;BME280;15126;42.186;24.340;2022-08-20T05:46:49;98796.88;;;27.97;57.87
27729;BME280;15126;42.186;24.340;2022-08-20T05:49:17;98799.47;;;28.08;57.12
27729;BME280;15126;42.186;24.340;2022-08-20T05:51:46;98782.00;;;27.98;56.83
27729;BME280;15126;42.186;24.340;2022-08-20T05:54:14;98800.91;;;27.94;55.80
27729;BME280;15126;42.186;24.340;2022-08-20T05:56:41;98799.63;;;28.02;56.78
27729;BME280;15126;42.186;24.340;2022-08-20T05:59:09;98787.53;;;27.96;56.45
27729;BME280;15126;42.186;24.340;2022-08-20T06:01:38;98793.53;;;28.06;56.39
27729;BME280;15126;42.186;24.340;2022-08-20T06:04:05;98791.69;;;27.88;55.90
27729;BME280;15126;42.186;24.340;2022-08-20T06:06:49;98796.34;;;27.98;56.84
27729;BME280;15126;42.186;24.340;2022-08-20T06:09:20;98781.72;;;28.09;57.34
27729;BME280;15126;42.186;24.340;2022-08-20T06:11:47;98797.50;;;28.31;56.16
27729;BME280;15126;42.186;24.340;2022-08-20T06:14:14;98781.06;;;28.31;55.80
27729;BME280;15126;42.186;24.340;2022-08-20T06:16:42;98792.13;;;28.63;55.87
27729;BME280;15126;42.186;24.340;2022-08-20T06:19:09;98793.28;;;28.68;54.95
27729;BME280;15126;42.186;24.340;2022-08-20T06:21:37;98796.16;;;28.68;54.79
27729;BME280;15126;42.186;24.340;2022-08-20T06:24:04;98793.91;;;28.81;54.57
27729;BME280;15126;42.186;24.340;2022-08-20T06:26:33;98778.41;;;28.77;54.62
27729;BME280;15126;42.186;24.340;2022-08-20T06:29:00;98792.78;;;28.92;53.77
27729;BME280;15126;42.186;24.340;2022-08-20T06:31:27;98795.53;;;29.13;54.96
27729;BME280;15126;42.186;24.340;2022-08-20T06:33:54;98792.09;;;29.14;53.63
27729;BME280;15126;42.186;24.340;2022-08-20T06:36:21;98802.88;;;29.36;54.53
27729;BME280;15126;42.186;24.340;2022-08-20T06:38:49;98792.72;;;29.50;54.49
27729;BME280;15126;42.186;24.340;2022-08-20T06:41:16;98780.66;;;29.52;53.49
27729;BME280;15126;42.186;24.340;2022-08-20T06:43:44;98799.41;;;29.30;52.23
27729;BME280;15126;42.186;24.340;2022-08-20T06:46:11;98795.78;;;29.52;52.00
27729;BME280;15126;42.186;24.340;2022-08-20T06:48:39;98796.94;;;29.42;51.93
27729;BME280;15126;42.186;24.340;2022-08-20T06:51:05;98800.22;;;29.61;55.09
27729;BME280;15126;42.186;24.340;2022-08-20T06:53:34;98802.31;;;29.61;52.52
27729;BME280;15126;42.186;24.340;2022-08-20T06:56:04;98803.84;;;29.62;51.68
27729;BME280;15126;42.186;24.340;2022-08-20T06:58:31;98779.50;;;29.63;52.79
27729;BME280;15126;42.186;24.340;2022-08-20T07:00:59;98802.13;;;29.96;52.08
27729;BME280;15126;42.186;24.340;2022-08-20T07:03:26;98808.06;;;30.14;51.35
27729;BME280;15126;42.186;24.340;2022-08-20T07:05:53;98796.94;;;30.02;52.44
27729;BME280;15126;42.186;24.340;2022-08-20T07:08:20;98803.13;;;29.84;51.87
27729;BME280;15126;42.186;24.340;2022-08-20T07:10:48;98795.81;;;29.68;51.12
27729;BME280;15126;42.186;24.340;2022-08-20T07:13:16;98802.69;;;30.02;52.00
27729;BME280;15126;42.186;24.340;2022-08-20T07:15:43;98805.75;;;30.04;50.07
27729;BME280;15126;42.186;24.340;2022-08-20T07:18:12;98787.38;;;30.00;51.39
27729;BME280;15126;42.186;24.340;2022-08-20T07:20:39;98797.81;;;30.28;49.94
27729;BME280;15126;42.186;24.340;2022-08-20T07:23:07;98798.78;;;30.45;48.44
27729;BME280;15126;42.186;24.340;2022-08-20T07:25:36;98783.41;;;30.50;49.29
27729;BME280;15126;42.186;24.340;2022-08-20T07:28:06;98798.31;;;30.64;48.49
27729;BME280;15126;42.186;24.340;2022-08-20T07:30:35;98795.91;;;30.93;52.91
27729;BME280;15126;42.186;24.340;2022-08-20T07:33:20;98788.13;;;31.10;48.89
27729;BME280;15126;42.186;24.340;2022-08-20T07:35:47;98782.44;;;31.28;49.13
27729;BME280;15126;42.186;24.340;2022-08-20T07:38:17;98785.59;;;31.39;48.07
27729;BME280;15126;42.186;24.340;2022-08-20T07:40:49;98768.31;;;31.39;46.94
27729;BME280;15126;42.186;24.340;2022-08-20T07:43:16;98780.47;;;31.62;46.17
27729;BME280;15126;42.186;24.340;2022-08-20T07:45:43;98773.03;;;31.76;46.28
27729;BME280;15126;42.186;24.340;2022-08-20T07:48:12;98744.31;;;31.61;45.26
27729;BME280;15126;42.186;24.340;2022-08-20T07:50:40;98764.47;;;31.86;45.03
27729;BME280;15126;42.186;24.340;2022-08-20T07:53:07;98758.13;;;32.05;45.11
27729;BME280;15126;42.186;24.340;2022-08-20T07:55:36;98761.72;;;32.13;47.58
27729;BME280;15126;42.186;24.340;2022-08-20T07:58:09;98752.47;;;32.31;48.31
27729;BME280;15126;42.186;24.340;2022-08-20T08:00:37;98747.94;;;32.38;47.92
27729;BME280;15126;42.186;24.340;2022-08-20T08:03:04;98760.09;;;32.54;44.53
27729;BME280;15126;42.186;24.340;2022-08-20T08:05:31;98750.31;;;32.66;45.21
27729;BME280;15126;42.186;24.340;2022-08-20T08:08:01;98756.56;;;32.72;43.89
27729;BME280;15126;42.186;24.340;2022-08-20T08:10:28;98751.78;;;32.84;45.07
27729;BME280;15126;42.186;24.340;2022-08-20T08:12:58;98754.00;;;32.93;44.71
27729;BME280;15126;42.186;24.340;2022-08-20T08:15:28;98748.97;;;32.94;41.68
27729;BME280;15126;42.186;24.340;2022-08-20T08:18:01;98744.13;;;32.96;44.42
27729;BME280;15126;42.186;24.340;2022-08-20T08:20:33;98735.91;;;33.03;42.03
27729;BME280;15126;42.186;24.340;2022-08-20T08:23:03;98738.16;;;32.94;41.76
27729;BME280;15126;42.186;24.340;2022-08-20T08:25:30;98732.59;;;32.79;43.02
27729;BME280;15126;42.186;24.340;2022-08-20T08:27:58;98727.97;;;32.93;44.53
27729;BME280;15126;42.186;24.340;2022-08-20T08:30:27;98732.22;;;32.92;42.47
27729;BME280;15126;42.186;24.340;2022-08-20T08:32:54;98724.44;;;32.85;44.83
27729;BME280;15126;42.186;24.340;2022-08-20T08:35:36;98721.47;;;32.76;43.40
27729;BME280;15126;42.186;24.340;2022-08-20T08:38:04;98706.09;;;33.00;44.26
27729;BME280;15126;42.186;24.340;2022-08-20T08:40:32;98695.28;;;32.47;42.84
27729;BME280;15126;42.186;24.340;2022-08-20T08:43:01;98706.75;;;32.81;43.87
27729;BME280;15126;42.186;24.340;2022-08-20T08:45:34;98694.81;;;32.94;42.52
27729;BME280;15126;42.186;24.340;2022-08-20T08:48:09;98698.88;;;32.38;42.80
27729;BME280;15126;42.186;24.340;2022-08-20T08:50:36;98689.50;;;32.47;44.22
27729;BME280;15126;42.186;24.340;2022-08-20T08:53:05;98684.25;;;32.80;45.47
27729;BME280;15126;42.186;24.340;2022-08-20T08:55:32;98620.50;;;32.51;42.11
27729;BME280;15126;42.186;24.340;2022-08-20T08:58:01;98677.97;;;33.01;42.24
27729;BME280;15126;42.186;24.340;2022-08-20T09:00:28;98667.59;;;32.97;42.43
27729;BME280;15126;42.186;24.340;2022-08-20T09:03:00;98675.44;;;33.14;41.52
27729;BME280;15126;42.186;24.340;2022-08-20T09:05:31;98681.28;;;33.24;39.43
27729;BME280;15126;42.186;24.340;2022-08-20T09:08:02;98680.03;;;33.17;40.57
27729;BME280;15126;42.186;24.340;2022-08-20T09:10:32;98686.44;;;33.25;40.98
27729;BME280;15126;42.186;24.340;2022-08-20T09:12:59;98678.56;;;33.35;41.91
27729;BME280;15126;42.186;24.340;2022-08-20T09:15:26;98677.09;;;33.53;40.46
27729;BME280;15126;42.186;24.340;2022-08-20T09:17:53;98675.78;;;33.64;40.49
27729;BME280;15126;42.186;24.340;2022-08-20T09:20:20;98667.66;;;33.53;41.00
27729;BME280;15126;42.186;24.340;2022-08-20T09:22:47;98666.94;;;33.81;40.20
27729;BME280;15126;42.186;24.340;2022-08-20T09:25:14;98657.53;;;34.00;38.81
27729;BME280;15126;42.186;24.340;2022-08-20T09:27:42;98655.53;;;33.93;39.55
27729;BME280;15126;42.186;24.340;2022-08-20T09:30:10;98660.44;;;34.09;41.67
27729;BME280;15126;42.186;24.340;2022-08-20T09:32:38;98655.56;;;34.22;39.03
27729;BME280;15126;42.186;24.340;2022-08-20T09:35:05;98645.63;;;34.25;40.20
27729;BME280;15126;42.186;24.340;2022-08-20T09:37:32;98643.47;;;34.35;37.62
27729;BME280;15126;42.186;24.340;2022-08-20T09:39:59;98632.53;;;34.24;37.24
27729;BME280;15126;42.186;24.340;2022-08-20T09:42:28;98629.78;;;34.06;42.30
27729;BME280;15126;42.186;24.340;2022-08-20T09:44:57;98618.03;;;34.04;38.92
27729;BME280;15126;42.186;24.340;2022-08-20T09:47:24;98638.91;;;34.22;38.75
27729;BME280;15126;42.186;24.340;2022-08-20T09:49:52;98630.09;;;34.30;38.83
27729;BME280;15126;42.186;24.340;2022-08-20T09:52:21;98626.38;;;34.39;38.18
27729;BME280;15126;42.186;24.340;2022-08-20T09:54:49;98626.97;;;34.47;37.99
27729;BME280;15126;42.186;24.340;2022-08-20T09:57:17;98627.91;;;34.40;37.88
27729;BME280;15126;42.186;24.340;2022-08-20T09:59:47;98623.03;;;34.33;38.89
27729;BME280;15126;42.186;24.340;2022-08-20T10:02:17;98614.03;;;34.38;37.47
27729;BME280;15126;42.186;24.340;2022-08-20T10:04:44;98616.38;;;34.21;37.88
27729;BME280;15126;42.186;24.340;2022-08-20T10:07:10;98618.53;;;34.10;40.11
27729;BME280;15126;42.186;24.340;2022-08-20T10:09:37;98617.75;;;34.10;39.02
27729;BME280;15126;42.186;24.340;2022-08-20T10:12:05;98617.72;;;34.00;40.34
27729;BME280;15126;42.186;24.340;2022-08-20T10:14:31;98613.34;;;34.09;41.65
27729;BME280;15126;42.186;24.340;2022-08-20T10:16:59;98608.16;;;33.88;39.24
27729;BME280;15126;42.186;24.340;2022-08-20T10:19:29;98609.84;;;34.10;38.97
27729;BME280;15126;42.186;24.340;2022-08-20T10:21:57;98603.56;;;34.24;38.57
27729;BME280;15126;42.186;24.340;2022-08-20T10:24:24;98600.97;;;34.28;38.85
27729;BME280;15126;42.186;24.340;2022-08-20T10:26:53;98602.91;;;34.44;40.27
27729;BME280;15126;42.186;24.340;2022-08-20T10:29:21;98602.59;;;34.59;37.90
27729;BME280;15126;42.186;24.340;2022-08-20T10:31:47;98591.59;;;34.58;36.72
27729;BME280;15126;42.186;24.340;2022-08-20T10:34:14;98587.44;;;34.71;36.95
27729;BME280;15126;42.186;24.340;2022-08-20T10:36:43;98583.16;;;34.72;37.50
27729;BME280;15126;42.186;24.340;2022-08-20T10:39:10;98575.53;;;34.76;38.23
27729;BME280;15126;42.186;24.340;2022-08-20T10:41:37;98591.06;;;34.81;38.11
27729;BME280;15126;42.186;24.340;2022-08-20T10:44:04;98587.50;;;34.92;38.14
27729;BME280;15126;42.186;24.340;2022-08-20T10:46:30;98591.75;;;34.91;38.32
27729;BME280;15126;42.186;24.340;2022-08-20T10:48:57;98576.59;;;34.71;37.79
27729;BME280;15126;42.186;24.340;2022-08-20T10:51:24;98565.69;;;34.91;40.48
27729;BME280;15126;42.186;24.340;2022-08-20T10:53:52;98549.91;;;34.73;39.35
27729;BME280;15126;42.186;24.340;2022-08-20T10:56:19;98555.81;;;34.84;39.13
27729;BME280;15126;42.186;24.340;2022-08-20T10:58:46;98542.13;;;34.75;37.62
27729;BME280;15126;42.186;24.340;2022-08-20T11:01:13;98550.75;;;34.85;37.69
27729;BME280;15126;42.186;24.340;2022-08-20T11:03:41;98544.94;;;34.85;39.33
27729;BME280;15126;42.186;24.340;2022-08-20T11:06:08;98558.72;;;35.05;38.31
27729;BME280;15126;42.186;24.340;2022-08-20T11:08:35;98553.31;;;34.90;38.69
27729;BME280;15126;42.186;24.340;2022-08-20T11:11:03;98557.53;;;34.99;38.07
27729;BME280;15126;42.186;24.340;2022-08-20T11:13:31;98543.28;;;35.12;38.56
27729;BME280;15126;42.186;24.340;2022-08-20T11:15:58;98536.94;;;35.25;39.27
27729;BME280;15126;42.186;24.340;2022-08-20T11:18:26;98546.28;;;35.24;37.98
27729;BME280;15126;42.186;24.340;2022-08-20T11:20:53;98540.72;;;35.28;38.71
27729;BME280;15126;42.186;24.340;2022-08-20T11:23:20;98533.56;;;35.29;40.33
27729;BME280;15126;42.186;24.340;2022-08-20T11:25:48;98533.22;;;35.13;39.13
27729;BME280;15126;42.186;24.340;2022-08-20T11:28:16;98517.28;;;35.24;38.25
27729;BME280;15126;42.186;24.340;2022-08-20T11:30:43;98523.84;;;35.24;37.65
27729;BME280;15126;42.186;24.340;2022-08-20T11:33:10;98517.81;;;35.32;40.18
27729;BME280;15126;42.186;24.340;2022-08-20T11:35:37;98511.03;;;35.39;37.53
27729;BME280;15126;42.186;24.340;2022-08-20T11:38:04;98505.59;;;35.55;38.30
27729;BME280;15126;42.186;24.340;2022-08-20T11:40:31;98503.22;;;35.63;37.53
27729;BME280;15126;42.186;24.340;2022-08-20T11:42:58;98504.91;;;35.77;38.41
27729;BME280;15126;42.186;24.340;2022-08-20T11:45:26;98495.06;;;35.82;35.99
27729;BME280;15126;42.186;24.340;2022-08-20T11:47:53;98496.34;;;35.91;35.47
27729;BME280;15126;42.186;24.340;2022-08-20T11:50:20;98489.25;;;35.71;36.63
27729;BME280;15126;42.186;24.340;2022-08-20T11:52:47;98496.88;;;35.99;35.65
27729;BME280;15126;42.186;24.340;2022-08-20T11:55:16;98496.63;;;35.95;35.99
27729;BME280;15126;42.186;24.340;2022-08-20T11:57:44;98495.84;;;35.83;36.12
27729;BME280;15126;42.186;24.340;2022-08-20T12:00:21;98503.88;;;35.73;37.00
27729;BME280;15126;42.186;24.340;2022-08-20T12:02:50;98497.44;;;35.63;36.02
27729;BME280;15126;42.186;24.340;2022-08-20T12:05:17;98497.16;;;35.59;37.77
27729;BME280;15126;42.186;24.340;2022-08-20T12:07:44;98494.00;;;35.55;38.10
27729;BME280;15126;42.186;24.340;2022-08-20T12:10:12;98490.38;;;35.45;36.87
27729;BME280;15126;42.186;24.340;2022-08-20T12:12:39;98478.50;;;35.41;37.06
27729;BME280;15126;42.186;24.340;2022-08-20T12:15:08;98475.31;;;35.37;38.61
27729;BME280;15126;42.186;24.340;2022-08-20T12:17:35;98475.19;;;35.35;38.52
27729;BME280;15126;42.186;24.340;2022-08-20T12:20:07;98470.56;;;35.20;36.61
27729;BME280;15126;42.186;24.340;2022-08-20T12:22:34;98481.81;;;35.25;37.43
27729;BME280;15126;42.186;24.340;2022-08-20T12:25:02;98489.63;;;35.23;35.90
27729;BME280;15126;42.186;24.340;2022-08-20T12:27:31;98484.59;;;35.23;37.04
27729;BME280;15126;42.186;24.340;2022-08-20T12:30:01;98487.38;;;35.21;40.76
27729;BME280;15126;42.186;24.340;2022-08-20T12:32:30;98486.72;;;35.23;41.06
27729;BME280;15126;42.186;24.340;2022-08-20T12:34:57;98478.53;;;35.19;41.81
27729;BME280;15126;42.186;24.340;2022-08-20T12:37:27;98470.09;;;35.23;43.11
27729;BME280;15126;42.186;24.340;2022-08-20T12:39:56;98469.31;;;35.02;42.01
27729;BME280;15126;42.186;24.340;2022-08-20T12:42:24;98465.50;;;34.57;40.87
27729;BME280;15126;42.186;24.340;2022-08-20T12:44:52;98469.06;;;33.96;40.82
27729;BME280;15126;42.186;24.340;2022-08-20T12:47:21;98462.59;;;34.17;42.11
27729;BME280;15126;42.186;24.340;2022-08-20T12:49:50;98469.06;;;34.36;41.17
27729;BME280;15126;42.186;24.340;2022-08-20T12:52:19;98461.44;;;34.10;42.51
27729;BME280;15126;42.186;24.340;2022-08-20T12:54:48;98458.34;;;34.18;43.62
27729;BME280;15126;42.186;24.340;2022-08-20T12:57:21;98447.25;;;34.04;45.10